sensor_id;sensor_type;location;lat;lon;timestamp;P1;durP1;ratioP1;P2;durP2;ratioP2
16579;SDS011;8402;51.466;6.806;2024-01-11T00:00:56;31.30;;;12.20;;
16579;SDS011;8402;51.466;6.806;2024-01-11T00:03:26;43.73;;;12.30;;
16579;SDS011;8402;51.466;6.806;2024-01-11T00:05:56;28.27;;;11.00;;
16579;SDS011;8402;51.466;6.806;2024-01-11T00:08:31;27.40;;;10.60;;
16579;SDS011;8402;51.466;6.806;2024-01-11T00:11:01;29.63;;;11.00;;
16579;SDS011;8402;51.466;6.806;2024-01-11T00:13:33;25.90;;;10.03;;
16579;SDS011;8402;51.466;6.806;2024-01-11T00:16:03;37.17;;;12.93;;
16579;SDS011;8402;51.466;6.806;2024-01-11T00:18:33;34.47;;;12.93;;
16579;SDS011;8402;51.466;6.806;2024-01-11T00:21:04;30.67;;;11.13;;
16579;SDS011;8402;51.466;6.806;2024-01-11T00:23:34;32.57;;;11.30;;
16579;SDS011;8402;51.466;6.806;2024-01-11T00:26:04;34.20;;;12.40;;
16579;SDS011;8402;51.466;6.806;2024-01-11T00:28:38;34.13;;;13.27;;
16579;SDS011;8402;51.466;6.806;2024-01-11T00:31:09;34.53;;;13.07;;
16579;SDS011;8402;51.466;6.806;2024-01-11T00:33:39;32.03;;;12.87;;
16579;SDS011;8402;51.466;6.806;2024-01-11T00:36:09;30.53;;;11.77;;
16579;SDS011;8402;51.466;6.806;2024-01-11T00:38:40;30.73;;;12.53;;
16579;SDS011;8402;51.466;6.806;2024-01-11T00:41:10;39.67;;;13.17;;
16579;SDS011;8402;51.466;6.806;2024-01-11T00:43:43;33.63;;;13.00;;
16579;SDS011;8402;51.466;6.806;2024-01-11T00:46:12;33.90;;;11.87;;
16579;SDS011;8402;51.466;6.806;2024-01-11T00:48:42;37.03;;;13.47;;
16579;SDS011;8402;51.466;6.806;2024-01-11T00:51:12;38.53;;;13.13;;
16579;SDS011;8402;51.466;6.806;2024-01-11T00:53:42;30.77;;;12.63;;
16579;SDS011;8402;51.466;6.806;2024-01-11T00:56:15;36.63;;;12.67;;
16579;SDS011;8402;51.466;6.806;2024-01-11T00:58:48;40.60;;;13.63;;
16579;SDS011;8402;51.466;6.806;2024-01-11T01:01:18;32.70;;;12.70;;
16579;SDS011;8402;51.466;6.806;2024-01-11T01:03:48;35.87;;;12.60;;
16579;SDS011;8402;51.466;6.806;2024-01-11T01:06:18;30.70;;;12.70;;
16579;SDS011;8402;51.466;6.806;2024-01-11T01:08:48;32.10;;;13.13;;
16579;SDS011;8402;51.466;6.806;2024-01-11T01:11:18;29.67;;;12.60;;
16579;SDS011;8402;51.466;6.806;2024-01-11T01:13:51;36.93;;;12.97;;
16579;SDS011;8402;51.466;6.806;2024-01-11T01:16:20;40.30;;;12.93;;
16579;SDS011;8402;51.466;6.806;2024-01-11T01:18:50;23.50;;;10.27;;
16579;SDS011;8402;51.466;6.806;2024-01-11T01:21:20;51.47;;;14.37;;
16579;SDS011;8402;51.466;6.806;2024-01-11T01:23:50;32.17;;;12.63;;
16579;SDS011;8402;51.466;6.806;2024-01-11T01:26:20;31.80;;;12.40;;
16579;SDS011;8402;51.466;6.806;2024-01-11T01:28:53;32.07;;;11.70;;
16579;SDS011;8402;51.466;6.806;2024-01-11T01:31:22;27.60;;;11.33;;
16579;SDS011;8402;51.466;6.806;2024-01-11T01:33:52;38.97;;;12.23;;
16579;SDS011;8402;51.466;6.806;2024-01-11T01:36:22;27.93;;;11.30;;
16579;SDS011;8402;51.466;6.806;2024-01-11T01:38:53;35.53;;;13.87;;
16579;SDS011;8402;51.466;6.806;2024-01-11T01:41:23;38.37;;;13.33;;
16579;SDS011;8402;51.466;6.806;2024-01-11T01:43:56;34.57;;;12.70;;
16579;SDS011;8402;51.466;6.806;2024-01-11T01:46:26;36.07;;;12.40;;
16579;SDS011;8402;51.466;6.806;2024-01-11T01:48:57;34.40;;;13.10;;
16579;SDS011;8402;51.466;6.806;2024-01-11T01:51:29;34.87;;;12.10;;
16579;SDS011;8402;51.466;6.806;2024-01-11T01:54:00;38.67;;;14.13;;
16579;SDS011;8402;51.466;6.806;2024-01-11T01:56:32;43.10;;;14.60;;
16579;SDS011;8402;51.466;6.806;2024-01-11T01:59:05;46.33;;;12.17;;
16579;SDS011;8402;51.466;6.806;2024-01-11T02:01:38;40.93;;;12.27;;
16579;SDS011;8402;51.466;6.806;2024-01-11T02:04:08;23.00;;;10.73;;
16579;SDS011;8402;51.466;6.806;2024-01-11T02:06:38;36.37;;;12.33;;
16579;SDS011;8402;51.466;6.806;2024-01-11T02:09:10;41.80;;;14.10;;
16579;SDS011;8402;51.466;6.806;2024-01-11T02:11:42;35.23;;;12.37;;
16579;SDS011;8402;51.466;6.806;2024-01-11T02:14:15;43.50;;;13.67;;
16579;SDS011;8402;51.466;6.806;2024-01-11T02:16:46;35.50;;;13.33;;
16579;SDS011;8402;51.466;6.806;2024-01-11T02:19:16;37.93;;;13.20;;
16579;SDS011;8402;51.466;6.806;2024-01-11T02:21:49;36.63;;;12.03;;
16579;SDS011;8402;51.466;6.806;2024-01-11T02:24:25;36.73;;;13.63;;
16579;SDS011;8402;51.466;6.806;2024-01-11T02:26:58;32.00;;;11.63;;
16579;SDS011;8402;51.466;6.806;2024-01-11T02:29:29;33.17;;;11.67;;
16579;SDS011;8402;51.466;6.806;2024-01-11T02:32:00;34.93;;;12.77;;
16579;SDS011;8402;51.466;6.806;2024-01-11T02:34:33;26.20;;;11.53;;
16579;SDS011;8402;51.466;6.806;2024-01-11T02:37:04;34.03;;;12.27;;
16579;SDS011;8402;51.466;6.806;2024-01-11T02:39:37;39.30;;;12.63;;
16579;SDS011;8402;51.466;6.806;2024-01-11T02:42:07;32.87;;;12.43;;
16579;SDS011;8402;51.466;6.806;2024-01-11T02:44:40;34.00;;;12.00;;
16579;SDS011;8402;51.466;6.806;2024-01-11T02:47:10;33.27;;;12.23;;
16579;SDS011;8402;51.466;6.806;2024-01-11T02:49:40;32.70;;;12.97;;
16579;SDS011;8402;51.466;6.806;2024-01-11T02:52:10;37.67;;;12.60;;
16579;SDS011;8402;51.466;6.806;2024-01-11T02:54:42;45.70;;;11.20;;
16579;SDS011;8402;51.466;6.806;2024-01-11T02:57:12;34.17;;;13.13;;
16579;SDS011;8402;51.466;6.806;2024-01-11T02:59:42;31.67;;;12.00;;
16579;SDS011;8402;51.466;6.806;2024-01-11T03:02:13;40.70;;;13.27;;
16579;SDS011;8402;51.466;6.806;2024-01-11T03:04:43;29.53;;;11.67;;
16579;SDS011;8402;51.466;6.806;2024-01-11T03:07:13;36.47;;;14.23;;
16579;SDS011;8402;51.466;6.806;2024-01-11T03:09:45;34.93;;;12.10;;
16579;SDS011;8402;51.466;6.806;2024-01-11T03:12:15;30.17;;;11.80;;
16579;SDS011;8402;51.466;6.806;2024-01-11T03:14:45;32.07;;;10.93;;
16579;SDS011;8402;51.466;6.806;2024-01-11T03:17:15;31.03;;;12.23;;
16579;SDS011;8402;51.466;6.806;2024-01-11T03:19:45;41.57;;;12.87;;
16579;SDS011;8402;51.466;6.806;2024-01-11T03:22:15;30.10;;;12.47;;
16579;SDS011;8402;51.466;6.806;2024-01-11T03:24:48;29.13;;;12.00;;
16579;SDS011;8402;51.466;6.806;2024-01-11T03:27:18;33.13;;;11.80;;
16579;SDS011;8402;51.466;6.806;2024-01-11T03:29:48;36.13;;;11.33;;
16579;SDS011;8402;51.466;6.806;2024-01-11T03:32:18;31.10;;;11.83;;
16579;SDS011;8402;51.466;6.806;2024-01-11T03:34:48;38.90;;;12.20;;
16579;SDS011;8402;51.466;6.806;2024-01-11T03:37:18;30.43;;;11.97;;
16579;SDS011;8402;51.466;6.806;2024-01-11T03:39:51;39.90;;;12.13;;
16579;SDS011;8402;51.466;6.806;2024-01-11T03:42:20;35.20;;;12.00;;
16579;SDS011;8402;51.466;6.806;2024-01-11T03:44:50;31.60;;;11.20;;
16579;SDS011;8402;51.466;6.806;2024-01-11T03:47:20;26.97;;;10.87;;
16579;SDS011;8402;51.466;6.806;2024-01-11T03:49:50;39.37;;;12.63;;
16579;SDS011;8402;51.466;6.806;2024-01-11T03:52:20;34.37;;;12.97;;
16579;SDS011;8402;51.466;6.806;2024-01-11T03:54:53;30.97;;;11.03;;
16579;SDS011;8402;51.466;6.806;2024-01-11T03:57:23;25.00;;;10.27;;
16579;SDS011;8402;51.466;6.806;2024-01-11T03:59:53;30.23;;;11.67;;
16579;SDS011;8402;51.466;6.806;2024-01-11T04:02:22;36.67;;;13.00;;
16579;SDS011;8402;51.466;6.806;2024-01-11T04:04:52;38.77;;;13.50;;
16579;SDS011;8402;51.466;6.806;2024-01-11T04:07:23;46.80;;;12.13;;
16579;SDS011;8402;51.466;6.806;2024-01-11T04:09:55;31.60;;;10.67;;
16579;SDS011;8402;51.466;6.806;2024-01-11T04:12:25;30.37;;;10.73;;
16579;SDS011;8402;51.466;6.806;2024-01-11T04:14:55;27.43;;;10.43;;
16579;SDS011;8402;51.466;6.806;2024-01-11T04:17:26;32.57;;;11.83;;
16579;SDS011;8402;51.466;6.806;2024-01-11T04:19:56;29.40;;;10.33;;
16579;SDS011;8402;51.466;6.806;2024-01-11T04:22:27;33.07;;;12.47;;
16579;SDS011;8402;51.466;6.806;2024-01-11T04:25:00;28.53;;;10.87;;
16579;SDS011;8402;51.466;6.806;2024-01-11T04:27:30;29.23;;;10.53;;
16579;SDS011;8402;51.466;6.806;2024-01-11T04:30:00;29.80;;;11.20;;
16579;SDS011;8402;51.466;6.806;2024-01-11T04:32:30;30.30;;;10.93;;
16579;SDS011;8402;51.466;6.806;2024-01-11T04:35:00;36.43;;;12.10;;
16579;SDS011;8402;51.466;6.806;2024-01-11T04:37:30;29.57;;;11.00;;
16579;SDS011;8402;51.466;6.806;2024-01-11T04:40:05;32.07;;;11.97;;
16579;SDS011;8402;51.466;6.806;2024-01-11T04:42:37;29.63;;;10.80;;
16579;SDS011;8402;51.466;6.806;2024-01-11T04:45:07;29.93;;;11.33;;
16579;SDS011;8402;51.466;6.806;2024-01-11T04:47:37;36.60;;;11.63;;
16579;SDS011;8402;51.466;6.806;2024-01-11T04:50:08;37.23;;;11.50;;
16579;SDS011;8402;51.466;6.806;2024-01-11T04:52:38;36.97;;;12.03;;
16579;SDS011;8402;51.466;6.806;2024-01-11T04:55:11;30.80;;;10.80;;
16579;SDS011;8402;51.466;6.806;2024-01-11T04:57:41;30.27;;;10.77;;
16579;SDS011;8402;51.466;6.806;2024-01-11T05:00:11;32.47;;;11.33;;
16579;SDS011;8402;51.466;6.806;2024-01-11T05:02:42;32.10;;;12.37;;
16579;SDS011;8402;51.466;6.806;2024-01-11T05:05:12;34.53;;;12.30;;
16579;SDS011;8402;51.466;6.806;2024-01-11T05:07:42;33.83;;;11.20;;
16579;SDS011;8402;51.466;6.806;2024-01-11T05:10:19;25.33;;;11.50;;
16579;SDS011;8402;51.466;6.806;2024-01-11T05:12:49;32.07;;;11.87;;
16579;SDS011;8402;51.466;6.806;2024-01-11T05:15:18;59.67;;;11.47;;
16579;SDS011;8402;51.466;6.806;2024-01-11T05:17:51;26.83;;;9.80;;
16579;SDS011;8402;51.466;6.806;2024-01-11T05:20:21;34.63;;;10.47;;
16579;SDS011;8402;51.466;6.806;2024-01-11T05:22:51;37.03;;;13.33;;
16579;SDS011;8402;51.466;6.806;2024-01-11T05:25:24;33.57;;;13.00;;
16579;SDS011;8402;51.466;6.806;2024-01-11T05:27:53;29.03;;;11.00;;
16579;SDS011;8402;51.466;6.806;2024-01-11T05:30:23;29.60;;;11.33;;
16579;SDS011;8402;51.466;6.806;2024-01-11T05:32:56;34.03;;;12.47;;
16579;SDS011;8402;51.466;6.806;2024-01-11T05:35:26;26.73;;;9.83;;
16579;SDS011;8402;51.466;6.806;2024-01-11T05:37:56;39.23;;;11.17;;
16579;SDS011;8402;51.466;6.806;2024-01-11T05:40:29;28.73;;;10.13;;
16579;SDS011;8402;51.466;6.806;2024-01-11T05:42:59;34.97;;;11.60;;
16579;SDS011;8402;51.466;6.806;2024-01-11T05:45:29;25.60;;;10.97;;
16579;SDS011;8402;51.466;6.806;2024-01-11T05:48:13;30.13;;;11.50;;
16579;SDS011;8402;51.466;6.806;2024-01-11T05:50:43;31.20;;;12.23;;
16579;SDS011;8402;51.466;6.806;2024-01-11T05:53:13;32.80;;;11.83;;
16579;SDS011;8402;51.466;6.806;2024-01-11T05:55:46;34.43;;;11.13;;
16579;SDS011;8402;51.466;6.806;2024-01-11T05:58:19;30.97;;;9.97;;
16579;SDS011;8402;51.466;6.806;2024-01-11T06:00:49;33.13;;;12.87;;
16579;SDS011;8402;51.466;6.806;2024-01-11T06:03:19;25.77;;;10.63;;
16579;SDS011;8402;51.466;6.806;2024-01-11T06:05:49;27.53;;;10.00;;
16579;SDS011;8402;51.466;6.806;2024-01-11T06:08:20;29.53;;;10.23;;
16579;SDS011;8402;51.466;6.806;2024-01-11T06:10:52;37.93;;;11.83;;
16579;SDS011;8402;51.466;6.806;2024-01-11T06:13:22;37.37;;;11.67;;
16579;SDS011;8402;51.466;6.806;2024-01-11T06:15:52;37.07;;;12.50;;
16579;SDS011;8402;51.466;6.806;2024-01-11T06:18:22;37.33;;;13.50;;
16579;SDS011;8402;51.466;6.806;2024-01-11T06:20:52;31.60;;;10.37;;
16579;SDS011;8402;51.466;6.806;2024-01-11T06:23:23;30.23;;;11.20;;
16579;SDS011;8402;51.466;6.806;2024-01-11T06:25:57;34.10;;;11.80;;
16579;SDS011;8402;51.466;6.806;2024-01-11T06:28:26;27.77;;;10.93;;
16579;SDS011;8402;51.466;6.806;2024-01-11T06:31:00;29.87;;;11.30;;
16579;SDS011;8402;51.466;6.806;2024-01-11T06:33:30;30.73;;;10.77;;
16579;SDS011;8402;51.466;6.806;2024-01-11T06:36:05;31.63;;;12.40;;
16579;SDS011;8402;51.466;6.806;2024-01-11T06:38:35;32.10;;;9.77;;
16579;SDS011;8402;51.466;6.806;2024-01-11T06:41:08;28.13;;;10.17;;
16579;SDS011;8402;51.466;6.806;2024-01-11T06:43:38;32.50;;;11.17;;
16579;SDS011;8402;51.466;6.806;2024-01-11T06:46:08;36.97;;;13.57;;
16579;SDS011;8402;51.466;6.806;2024-01-11T06:48:38;30.53;;;10.83;;
16579;SDS011;8402;51.466;6.806;2024-01-11T06:51:08;33.27;;;10.77;;
16579;SDS011;8402;51.466;6.806;2024-01-11T06:53:38;20.73;;;8.73;;
16579;SDS011;8402;51.466;6.806;2024-01-11T06:56:17;35.10;;;13.10;;
16579;SDS011;8402;51.466;6.806;2024-01-11T06:58:48;37.00;;;11.73;;
16579;SDS011;8402;51.466;6.806;2024-01-11T07:01:18;32.17;;;11.63;;
16579;SDS011;8402;51.466;6.806;2024-01-11T07:03:48;30.47;;;10.93;;
16579;SDS011;8402;51.466;6.806;2024-01-11T07:06:19;31.57;;;11.50;;
16579;SDS011;8402;51.466;6.806;2024-01-11T07:08:49;25.77;;;9.70;;
16579;SDS011;8402;51.466;6.806;2024-01-11T07:11:21;33.47;;;12.40;;
16579;SDS011;8402;51.466;6.806;2024-01-11T07:13:51;33.40;;;12.60;;
16579;SDS011;8402;51.466;6.806;2024-01-11T07:16:22;28.10;;;10.90;;
16579;SDS011;8402;51.466;6.806;2024-01-11T07:18:52;33.47;;;11.73;;
16579;SDS011;8402;51.466;6.806;2024-01-11T07:21:22;33.20;;;11.80;;
16579;SDS011;8402;51.466;6.806;2024-01-11T07:23:56;30.20;;;11.90;;
16579;SDS011;8402;51.466;6.806;2024-01-11T07:26:29;27.63;;;10.80;;
16579;SDS011;8402;51.466;6.806;2024-01-11T07:28:59;33.43;;;11.57;;
16579;SDS011;8402;51.466;6.806;2024-01-11T07:31:29;40.03;;;14.47;;
16579;SDS011;8402;51.466;6.806;2024-01-11T07:33:59;38.13;;;11.93;;
16579;SDS011;8402;51.466;6.806;2024-01-11T07:36:29;32.83;;;12.20;;
16579;SDS011;8402;51.466;6.806;2024-01-11T07:38:59;31.37;;;11.90;;
16579;SDS011;8402;51.466;6.806;2024-01-11T07:41:32;28.60;;;10.80;;
16579;SDS011;8402;51.466;6.806;2024-01-11T07:44:02;30.23;;;12.60;;
16579;SDS011;8402;51.466;6.806;2024-01-11T07:46:32;34.87;;;13.83;;
16579;SDS011;8402;51.466;6.806;2024-01-11T07:49:15;41.27;;;12.53;;
16579;SDS011;8402;51.466;6.806;2024-01-11T07:51:45;32.50;;;12.00;;
16579;SDS011;8402;51.466;6.806;2024-01-11T07:54:15;35.47;;;12.43;;
16579;SDS011;8402;51.466;6.806;2024-01-11T07:56:48;38.37;;;13.43;;
16579;SDS011;8402;51.466;6.806;2024-01-11T07:59:18;38.33;;;13.57;;
16579;SDS011;8402;51.466;6.806;2024-01-11T08:01:48;30.90;;;10.80;;
16579;SDS011;8402;51.466;6.806;2024-01-11T08:04:19;33.27;;;13.43;;
16579;SDS011;8402;51.466;6.806;2024-01-11T08:06:49;22.83;;;11.30;;
16579;SDS011;8402;51.466;6.806;2024-01-11T08:09:19;34.90;;;12.37;;
16579;SDS011;8402;51.466;6.806;2024-01-11T08:11:52;30.90;;;11.50;;
16579;SDS011;8402;51.466;6.806;2024-01-11T08:14:23;40.43;;;12.73;;
16579;SDS011;8402;51.466;6.806;2024-01-11T08:16:53;30.77;;;11.90;;
16579;SDS011;8402;51.466;6.806;2024-01-11T08:19:25;29.87;;;10.63;;
16579;SDS011;8402;51.466;6.806;2024-01-11T08:21:55;34.23;;;12.23;;
16579;SDS011;8402;51.466;6.806;2024-01-11T08:24:24;36.63;;;13.07;;
16579;SDS011;8402;51.466;6.806;2024-01-11T08:26:57;32.20;;;11.73;;
16579;SDS011;8402;51.466;6.806;2024-01-11T08:29:27;33.90;;;11.40;;
16579;SDS011;8402;51.466;6.806;2024-01-11T08:31:57;29.47;;;10.60;;
16579;SDS011;8402;51.466;6.806;2024-01-11T08:34:37;30.73;;;12.37;;
16579;SDS011;8402;51.466;6.806;2024-01-11T08:37:07;31.30;;;12.60;;
16579;SDS011;8402;51.466;6.806;2024-01-11T08:39:37;33.73;;;12.33;;
16579;SDS011;8402;51.466;6.806;2024-01-11T08:42:11;42.37;;;13.83;;
16579;SDS011;8402;51.466;6.806;2024-01-11T08:44:41;36.13;;;12.37;;
16579;SDS011;8402;51.466;6.806;2024-01-11T08:47:12;30.17;;;11.97;;
16579;SDS011;8402;51.466;6.806;2024-01-11T08:49:42;22.00;;;9.13;;
16579;SDS011;8402;51.466;6.806;2024-01-11T08:52:12;13.50;;;5.77;;
16579;SDS011;8402;51.466;6.806;2024-01-11T08:54:42;33.10;;;11.50;;
16579;SDS011;8402;51.466;6.806;2024-01-11T08:57:14;30.87;;;11.53;;
16579;SDS011;8402;51.466;6.806;2024-01-11T08:59:44;28.17;;;11.17;;
16579;SDS011;8402;51.466;6.806;2024-01-11T09:02:15;38.10;;;12.97;;
16579;SDS011;8402;51.466;6.806;2024-01-11T09:04:48;34.67;;;11.90;;
16579;SDS011;8402;51.466;6.806;2024-01-11T09:07:18;30.23;;;11.47;;
16579;SDS011;8402;51.466;6.806;2024-01-11T09:09:48;29.80;;;11.70;;
16579;SDS011;8402;51.466;6.806;2024-01-11T09:12:25;42.43;;;13.60;;
16579;SDS011;8402;51.466;6.806;2024-01-11T09:14:55;33.07;;;10.83;;
16579;SDS011;8402;51.466;6.806;2024-01-11T09:17:25;34.37;;;14.10;;
16579;SDS011;8402;51.466;6.806;2024-01-11T09:19:55;42.83;;;11.37;;
16579;SDS011;8402;51.466;6.806;2024-01-11T09:22:26;35.93;;;11.37;;
16579;SDS011;8402;51.466;6.806;2024-01-11T09:24:56;48.20;;;16.70;;
16579;SDS011;8402;51.466;6.806;2024-01-11T09:27:29;40.23;;;15.37;;
16579;SDS011;8402;51.466;6.806;2024-01-11T09:29:58;36.97;;;15.17;;
16579;SDS011;8402;51.466;6.806;2024-01-11T09:32:29;47.70;;;15.53;;
16579;SDS011;8402;51.466;6.806;2024-01-11T09:34:59;51.27;;;15.47;;
16579;SDS011;8402;51.466;6.806;2024-01-11T09:37:29;45.50;;;14.80;;
16579;SDS011;8402;51.466;6.806;2024-01-11T09:40:00;35.57;;;13.40;;
16579;SDS011;8402;51.466;6.806;2024-01-11T09:42:35;47.23;;;16.63;;
16579;SDS011;8402;51.466;6.806;2024-01-11T09:45:06;37.17;;;12.00;;
16579;SDS011;8402;51.466;6.806;2024-01-11T09:47:39;36.50;;;14.57;;
16579;SDS011;8402;51.466;6.806;2024-01-11T09:50:09;43.97;;;15.90;;
16579;SDS011;8402;51.466;6.806;2024-01-11T09:52:45;33.00;;;14.07;;
16579;SDS011;8402;51.466;6.806;2024-01-11T09:55:17;42.50;;;15.73;;
16579;SDS011;8402;51.466;6.806;2024-01-11T09:57:51;45.03;;;15.73;;
16579;SDS011;8402;51.466;6.806;2024-01-11T10:00:26;35.63;;;14.53;;
16579;SDS011;8402;51.466;6.806;2024-01-11T10:02:58;39.97;;;14.90;;
16579;SDS011;8402;51.466;6.806;2024-01-11T10:05:28;37.43;;;13.97;;
16579;SDS011;8402;51.466;6.806;2024-01-11T10:07:59;39.17;;;16.40;;
16579;SDS011;8402;51.466;6.806;2024-01-11T10:10:29;47.00;;;17.27;;
16579;SDS011;8402;51.466;6.806;2024-01-11T10:13:02;36.43;;;14.50;;
16579;SDS011;8402;51.466;6.806;2024-01-11T10:15:32;45.03;;;15.60;;
16579;SDS011;8402;51.466;6.806;2024-01-11T10:18:02;50.63;;;17.20;;
16579;SDS011;8402;51.466;6.806;2024-01-11T10:20:33;52.73;;;16.77;;
16579;SDS011;8402;51.466;6.806;2024-01-11T10:23:04;42.37;;;17.03;;
16579;SDS011;8402;51.466;6.806;2024-01-11T10:25:35;47.97;;;16.30;;
16579;SDS011;8402;51.466;6.806;2024-01-11T10:28:07;41.83;;;16.73;;
16579;SDS011;8402;51.466;6.806;2024-01-11T10:30:37;41.43;;;15.73;;
16579;SDS011;8402;51.466;6.806;2024-01-11T10:33:08;40.03;;;14.33;;
16579;SDS011;8402;51.466;6.806;2024-01-11T10:35:39;44.03;;;14.90;;
16579;SDS011;8402;51.466;6.806;2024-01-11T10:38:09;36.70;;;14.47;;
16579;SDS011;8402;51.466;6.806;2024-01-11T10:40:39;35.53;;;13.50;;
16579;SDS011;8402;51.466;6.806;2024-01-11T10:43:15;33.77;;;13.57;;
16579;SDS011;8402;51.466;6.806;2024-01-11T10:45:51;26.03;;;11.70;;
16579;SDS011;8402;51.466;6.806;2024-01-11T10:48:24;42.80;;;15.33;;
16579;SDS011;8402;51.466;6.806;2024-01-11T10:50:57;40.97;;;14.93;;
16579;SDS011;8402;51.466;6.806;2024-01-11T10:53:31;35.60;;;15.40;;
16579;SDS011;8402;51.466;6.806;2024-01-11T10:56:13;33.33;;;13.70;;
16579;SDS011;8402;51.466;6.806;2024-01-11T10:58:46;36.03;;;13.47;;
16579;SDS011;8402;51.466;6.806;2024-01-11T11:01:17;31.17;;;12.93;;
16579;SDS011;8402;51.466;6.806;2024-01-11T11:03:50;37.93;;;14.47;;
16579;SDS011;8402;51.466;6.806;2024-01-11T11:06:24;41.63;;;14.60;;
16579;SDS011;8402;51.466;6.806;2024-01-11T11:08:55;35.60;;;14.70;;
16579;SDS011;8402;51.466;6.806;2024-01-11T11:11:26;43.30;;;13.50;;
16579;SDS011;8402;51.466;6.806;2024-01-11T11:13:59;32.40;;;13.53;;
16579;SDS011;8402;51.466;6.806;2024-01-11T11:16:30;42.33;;;16.37;;
16579;SDS011;8402;51.466;6.806;2024-01-11T11:19:00;39.90;;;15.33;;
16579;SDS011;8402;51.466;6.806;2024-01-11T11:21:30;39.73;;;14.43;;
16579;SDS011;8402;51.466;6.806;2024-01-11T11:24:00;39.13;;;14.57;;
16579;SDS011;8402;51.466;6.806;2024-01-11T11:26:31;42.67;;;16.80;;
16579;SDS011;8402;51.466;6.806;2024-01-11T11:29:05;39.07;;;15.13;;
16579;SDS011;8402;51.466;6.806;2024-01-11T11:31:35;36.47;;;13.80;;
16579;SDS011;8402;51.466;6.806;2024-01-11T11:34:06;41.47;;;14.53;;
16579;SDS011;8402;51.466;6.806;2024-01-11T11:36:36;38.43;;;15.17;;
16579;SDS011;8402;51.466;6.806;2024-01-11T11:39:09;35.53;;;14.07;;
16579;SDS011;8402;51.466;6.806;2024-01-11T11:41:41;39.20;;;14.57;;
16579;SDS011;8402;51.466;6.806;2024-01-11T11:44:14;41.57;;;14.77;;
16579;SDS011;8402;51.466;6.806;2024-01-11T11:46:45;46.23;;;16.30;;
16579;SDS011;8402;51.466;6.806;2024-01-11T11:49:15;31.50;;;13.47;;
16579;SDS011;8402;51.466;6.806;2024-01-11T11:51:45;39.23;;;12.73;;
16579;SDS011;8402;51.466;6.806;2024-01-11T11:54:15;40.33;;;14.77;;
16579;SDS011;8402;51.466;6.806;2024-01-11T11:56:45;36.20;;;14.70;;
16579;SDS011;8402;51.466;6.806;2024-01-11T11:59:21;36.73;;;14.57;;
16579;SDS011;8402;51.466;6.806;2024-01-11T12:01:52;28.43;;;12.87;;
16579;SDS011;8402;51.466;6.806;2024-01-11T12:04:23;30.77;;;13.80;;
16579;SDS011;8402;51.466;6.806;2024-01-11T12:06:53;38.33;;;15.10;;
16579;SDS011;8402;51.466;6.806;2024-01-11T12:09:23;30.00;;;11.13;;
16579;SDS011;8402;51.466;6.806;2024-01-11T12:11:56;31.57;;;12.67;;
16579;SDS011;8402;51.466;6.806;2024-01-11T12:14:43;28.17;;;12.87;;
16579;SDS011;8402;51.466;6.806;2024-01-11T12:17:13;27.40;;;10.70;;
16579;SDS011;8402;51.466;6.806;2024-01-11T12:19:43;37.30;;;14.27;;
16579;SDS011;8402;51.466;6.806;2024-01-11T12:22:13;31.90;;;12.67;;
16579;SDS011;8402;51.466;6.806;2024-01-11T12:24:43;31.03;;;12.67;;
16579;SDS011;8402;51.466;6.806;2024-01-11T12:27:13;37.80;;;13.97;;
16579;SDS011;8402;51.466;6.806;2024-01-11T12:29:46;33.07;;;13.40;;
16579;SDS011;8402;51.466;6.806;2024-01-11T12:32:24;26.13;;;10.83;;
16579;SDS011;8402;51.466;6.806;2024-01-11T12:34:56;34.47;;;12.90;;
16579;SDS011;8402;51.466;6.806;2024-01-11T12:37:27;35.20;;;14.70;;
16579;SDS011;8402;51.466;6.806;2024-01-11T12:39:59;35.57;;;14.20;;
16579;SDS011;8402;51.466;6.806;2024-01-11T12:42:30;20.73;;;8.83;;
16579;SDS011;8402;51.466;6.806;2024-01-11T12:45:02;33.73;;;13.20;;
16579;SDS011;8402;51.466;6.806;2024-01-11T12:47:33;36.47;;;13.70;;
16579;SDS011;8402;51.466;6.806;2024-01-11T12:50:05;30.93;;;13.30;;
16579;SDS011;8402;51.466;6.806;2024-01-11T12:52:36;31.10;;;13.13;;
16579;SDS011;8402;51.466;6.806;2024-01-11T12:55:07;33.67;;;13.17;;
16579;SDS011;8402;51.466;6.806;2024-01-11T12:57:46;40.90;;;12.30;;
16579;SDS011;8402;51.466;6.806;2024-01-11T13:00:20;35.10;;;11.53;;
16579;SDS011;8402;51.466;6.806;2024-01-11T13:02:50;32.63;;;11.93;;
16579;SDS011;8402;51.466;6.806;2024-01-11T13:05:20;29.53;;;11.93;;
16579;SDS011;8402;51.466;6.806;2024-01-11T13:07:50;27.37;;;11.10;;
16579;SDS011;8402;51.466;6.806;2024-01-11T13:10:20;24.60;;;9.93;;
16579;SDS011;8402;51.466;6.806;2024-01-11T13:12:54;26.60;;;10.67;;
16579;SDS011;8402;51.466;6.806;2024-01-11T13:15:38;30.70;;;11.43;;
16579;SDS011;8402;51.466;6.806;2024-01-11T13:18:08;28.87;;;10.53;;
16579;SDS011;8402;51.466;6.806;2024-01-11T13:20:38;25.30;;;11.33;;
16579;SDS011;8402;51.466;6.806;2024-01-11T13:23:12;27.43;;;11.13;;
16579;SDS011;8402;51.466;6.806;2024-01-11T13:25:45;26.47;;;10.63;;
16579;SDS011;8402;51.466;6.806;2024-01-11T13:28:16;32.30;;;11.73;;
16579;SDS011;8402;51.466;6.806;2024-01-11T13:30:49;27.87;;;10.73;;
16579;SDS011;8402;51.466;6.806;2024-01-11T13:33:19;31.37;;;10.77;;
16579;SDS011;8402;51.466;6.806;2024-01-11T13:35:50;23.73;;;8.50;;
16579;SDS011;8402;51.466;6.806;2024-01-11T13:38:21;26.10;;;10.43;;
16579;SDS011;8402;51.466;6.806;2024-01-11T13:40:51;22.37;;;9.27;;
16579;SDS011;8402;51.466;6.806;2024-01-11T13:43:21;21.63;;;8.30;;
16579;SDS011;8402;51.466;6.806;2024-01-11T13:45:53;22.27;;;9.77;;
16579;SDS011;8402;51.466;6.806;2024-01-11T13:48:24;20.37;;;8.53;;
16579;SDS011;8402;51.466;6.806;2024-01-11T13:50:54;26.53;;;9.17;;
16579;SDS011;8402;51.466;6.806;2024-01-11T13:53:24;23.63;;;9.03;;
16579;SDS011;8402;51.466;6.806;2024-01-11T13:55:54;26.17;;;10.03;;
16579;SDS011;8402;51.466;6.806;2024-01-11T13:58:24;21.93;;;8.43;;
16579;SDS011;8402;51.466;6.806;2024-01-11T14:00:56;24.90;;;9.93;;
16579;SDS011;8402;51.466;6.806;2024-01-11T14:03:26;23.93;;;9.73;;
16579;SDS011;8402;51.466;6.806;2024-01-11T14:05:56;22.57;;;10.17;;
16579;SDS011;8402;51.466;6.806;2024-01-11T14:08:27;21.13;;;9.37;;
16579;SDS011;8402;51.466;6.806;2024-01-11T14:10:57;20.30;;;9.27;;
16579;SDS011;8402;51.466;6.806;2024-01-11T14:13:27;19.47;;;9.00;;
16579;SDS011;8402;51.466;6.806;2024-01-11T14:15:59;22.40;;;8.37;;
16579;SDS011;8402;51.466;6.806;2024-01-11T14:18:29;25.10;;;9.63;;
16579;SDS011;8402;51.466;6.806;2024-01-11T14:21:00;23.23;;;9.57;;
16579;SDS011;8402;51.466;6.806;2024-01-11T14:23:30;29.23;;;10.30;;
16579;SDS011;8402;51.466;6.806;2024-01-11T14:26:00;19.97;;;9.10;;
16579;SDS011;8402;51.466;6.806;2024-01-11T14:28:30;24.67;;;9.90;;
16579;SDS011;8402;51.466;6.806;2024-01-11T14:31:03;28.90;;;10.40;;
16579;SDS011;8402;51.466;6.806;2024-01-11T14:33:33;26.07;;;9.43;;
16579;SDS011;8402;51.466;6.806;2024-01-11T14:36:04;22.53;;;9.03;;
16579;SDS011;8402;51.466;6.806;2024-01-11T14:38:34;27.40;;;9.83;;
16579;SDS011;8402;51.466;6.806;2024-01-11T14:41:04;25.20;;;9.80;;
16579;SDS011;8402;51.466;6.806;2024-01-11T14:43:35;22.57;;;9.10;;
16579;SDS011;8402;51.466;6.806;2024-01-11T14:46:08;24.60;;;9.47;;
16579;SDS011;8402;51.466;6.806;2024-01-11T14:48:41;26.17;;;10.23;;
16579;SDS011;8402;51.466;6.806;2024-01-11T14:51:11;28.93;;;10.20;;
16579;SDS011;8402;51.466;6.806;2024-01-11T14:53:42;24.17;;;8.70;;
16579;SDS011;8402;51.466;6.806;2024-01-11T14:56:12;21.47;;;9.37;;
16579;SDS011;8402;51.466;6.806;2024-01-11T14:58:42;20.90;;;8.70;;